createdAt,value
2024-01-11T00:01:20.428Z,83.94
2024-01-11T00:03:46.928Z,83.05
2024-01-11T00:06:13.415Z,83.99
2024-01-11T00:08:39.989Z,84.71
2024-01-11T00:11:06.540Z,84.46
2024-01-11T00:13:32.949Z,84.54
2024-01-11T00:15:59.378Z,84.59
2024-01-11T00:18:26.222Z,85.23
2024-01-11T00:20:53.020Z,84.89
2024-01-11T00:23:23.727Z,84.54
2024-01-11T00:25:50.198Z,85.49
2024-01-11T00:28:16.616Z,85.68
2024-01-11T00:30:43.207Z,85.88
2024-01-11T00:33:10.552Z,85.60
2024-01-11T00:35:37.123Z,85.37
2024-01-11T00:38:03.791Z,84.83
2024-01-11T00:40:30.228Z,85.68
2024-01-11T00:42:56.615Z,85.24
2024-01-11T00:45:23.057Z,85.06
2024-01-11T00:47:49.573Z,85.45
2024-01-11T00:50:16.184Z,86.07
2024-01-11T00:52:42.629Z,85.90
2024-01-11T00:55:09.275Z,86.16
2024-01-11T00:57:35.731Z,85.46
2024-01-11T01:00:02.136Z,85.71
2024-01-11T01:02:28.574Z,86.21
2024-01-11T01:04:55.173Z,86.36
2024-01-11T01:07:21.609Z,87.13
2024-01-11T01:09:47.992Z,86.79
2024-01-11T01:12:14.376Z,86.16
2024-01-11T01:14:40.857Z,85.92
2024-01-11T01:17:07.359Z,86.76
2024-01-11T01:19:34.414Z,86.51
2024-01-11T01:22:00.968Z,86.26
2024-01-11T01:24:27.385Z,85.85
2024-01-11T01:26:53.845Z,85.41
2024-01-11T01:29:20.303Z,85.90
2024-01-11T01:31:46.895Z,85.82
2024-01-11T01:34:13.443Z,86.73
2024-01-11T01:36:39.991Z,85.83
2024-01-11T01:39:06.367Z,86.05
2024-01-11T01:41:32.979Z,85.28
2024-01-11T01:43:59.516Z,85.79
2024-01-11T01:46:27.050Z,85.99
2024-01-11T01:48:55.166Z,86.02
2024-01-11T01:51:23.443Z,85.93
2024-01-11T01:53:53.197Z,85.50
2024-01-11T01:56:21.259Z,85.91
2024-01-11T01:58:50.978Z,86.02
2024-01-11T02:01:18.004Z,86.00
2024-01-11T02:03:44.698Z,85.92
2024-01-11T02:06:11.351Z,85.35
2024-01-11T02:08:39.241Z,86.79
2024-01-11T02:11:06.607Z,87.72
2024-01-11T02:13:33.417Z,86.63
2024-01-11T02:15:59.822Z,86.63
2024-01-11T02:18:26.265Z,86.10
2024-01-11T02:20:52.902Z,86.36
2024-01-11T02:23:22.583Z,86.54
2024-01-11T02:25:48.978Z,86.15
2024-01-11T02:28:15.752Z,85.99
2024-01-11T02:30:42.249Z,85.18
2024-01-11T02:33:09.521Z,85.92
2024-01-11T02:35:38.486Z,86.56
2024-01-11T02:38:06.548Z,86.87
2024-01-11T02:40:33.870Z,86.86
2024-01-11T02:43:08.623Z,86.85
2024-01-11T02:45:35.068Z,86.90
2024-01-11T02:48:01.578Z,86.34
2024-01-11T02:50:28.152Z,85.91
2024-01-11T02:52:54.648Z,86.52
2024-01-11T02:55:21.179Z,86.71
2024-01-11T02:57:48.977Z,86.71
2024-01-11T03:00:15.525Z,86.36
2024-01-11T03:02:42.488Z,87.70
2024-01-11T03:05:09.177Z,87.43
2024-01-11T03:07:35.635Z,87.19
2024-01-11T03:10:02.505Z,86.66
2024-01-11T03:12:29.672Z,86.76
2024-01-11T03:14:56.220Z,87.38
2024-01-11T03:17:22.835Z,86.87
2024-01-11T03:19:49.365Z,86.76
2024-01-11T03:22:15.792Z,87.50
2024-01-11T03:24:42.300Z,87.15
2024-01-11T03:27:08.754Z,86.69
2024-01-11T03:29:35.308Z,86.23
2024-01-11T03:32:01.944Z,86.77
2024-01-11T03:34:28.607Z,86.54
2024-01-11T03:36:55.163Z,86.60
2024-01-11T03:39:21.570Z,85.58
2024-01-11T03:41:48.366Z,86.36
2024-01-11T03:44:14.849Z,86.80
2024-01-11T03:46:41.260Z,87.80
2024-01-11T03:49:08.882Z,87.53
2024-01-11T03:51:35.835Z,86.97
2024-01-11T03:54:02.271Z,87.20
2024-01-11T03:56:28.760Z,87.53
2024-01-11T03:58:55.266Z,86.45
2024-01-11T04:01:21.785Z,87.10
2024-01-11T04:03:48.305Z,87.11
2024-01-11T04:06:25.348Z,87.00
2024-01-11T04:08:52.072Z,87.24
2024-01-11T04:11:18.644Z,86.42
2024-01-11T04:13:45.122Z,86.33
2024-01-11T04:16:11.614Z,86.36
2024-01-11T04:18:38.288Z,86.88
2024-01-11T04:21:04.962Z,87.52
2024-01-11T04:23:31.590Z,87.75
2024-01-11T04:25:58.053Z,88.38
2024-01-11T04:28:24.459Z,87.81
2024-01-11T04:30:50.973Z,87.58
2024-01-11T04:33:17.556Z,87.17
2024-01-11T04:35:44.115Z,86.68
2024-01-11T04:38:10.759Z,86.52
2024-01-11T04:40:37.228Z,86.20
2024-01-11T04:43:04.070Z,85.52
2024-01-11T04:45:30.540Z,85.65
2024-01-11T04:47:57.267Z,85.08
2024-01-11T04:50:23.834Z,84.89
2024-01-11T04:52:50.263Z,85.57
2024-01-11T04:55:16.687Z,86.90
2024-01-11T04:57:43.218Z,87.00
2024-01-11T05:00:09.983Z,87.05
2024-01-11T05:02:36.645Z,87.58
2024-01-11T05:05:03.185Z,86.89
2024-01-11T05:07:29.719Z,86.65
2024-01-11T05:09:56.144Z,86.96
2024-01-11T05:12:22.624Z,87.58
2024-01-11T05:14:49.102Z,87.33
2024-01-11T05:17:15.620Z,87.17
2024-01-11T05:19:42.095Z,87.68
2024-01-11T05:22:08.506Z,87.62
2024-01-11T05:24:35.198Z,86.64
2024-01-11T05:27:01.858Z,86.71
2024-01-11T05:29:28.367Z,86.87
2024-01-11T05:31:55.096Z,86.91
2024-01-11T05:34:21.738Z,87.45
2024-01-11T05:36:48.203Z,87.34
2024-01-11T05:39:14.680Z,86.44
2024-01-11T05:41:44.707Z,86.37
2024-01-11T05:44:11.191Z,86.00
2024-01-11T05:46:37.670Z,86.55
2024-01-11T05:49:04.578Z,86.83
2024-01-11T05:51:30.977Z,86.92
2024-01-11T05:53:57.359Z,87.33
2024-01-11T05:56:23.829Z,87.04
2024-01-11T05:58:50.265Z,87.64
2024-01-11T06:01:16.875Z,87.47
2024-01-11T06:03:43.376Z,88.09
2024-01-11T06:06:10.335Z,87.45
2024-01-11T06:08:37.272Z,87.02
2024-01-11T06:11:05.104Z,86.94
2024-01-11T06:13:31.597Z,85.98
2024-01-11T06:15:58.068Z,87.11
2024-01-11T06:18:25.115Z,86.45
2024-01-11T06:20:51.641Z,86.14
2024-01-11T06:23:18.546Z,86.08
2024-01-11T06:25:47.194Z,86.00
2024-01-11T06:28:13.634Z,85.75
2024-01-11T06:30:40.141Z,86.94
2024-01-11T06:33:06.794Z,86.72
2024-01-11T06:35:33.425Z,86.56
2024-01-11T06:37:59.884Z,86.99
2024-01-11T06:40:26.445Z,87.35
2024-01-11T06:42:52.889Z,86.59
2024-01-11T06:45:20.082Z,86.94
2024-01-11T06:47:47.439Z,86.81
2024-01-11T06:50:14.097Z,86.12
2024-01-11T06:52:40.585Z,85.91
2024-01-11T06:55:07.613Z,86.32
2024-01-11T06:57:34.003Z,86.14
2024-01-11T07:00:00.550Z,86.73
2024-01-11T07:02:27.115Z,87.74
2024-01-11T07:04:58.104Z,88.44
2024-01-11T07:07:24.611Z,88.59
2024-01-11T07:09:51.186Z,88.23
2024-01-11T07:12:18.161Z,87.69
2024-01-11T07:14:44.614Z,87.70
2024-01-11T07:17:11.079Z,87.71
2024-01-11T07:19:38.071Z,87.55
2024-01-11T07:22:04.945Z,87.90
2024-01-11T07:24:38.277Z,87.68
2024-01-11T07:27:08.014Z,89.04
2024-01-11T07:29:34.834Z,89.33
2024-01-11T07:32:01.483Z,89.17
2024-01-11T07:34:28.983Z,88.75
2024-01-11T07:36:55.691Z,88.27
2024-01-11T07:39:23.553Z,87.75
2024-01-11T07:41:50.030Z,89.07
2024-01-11T07:44:16.497Z,88.79
2024-01-11T07:46:50.462Z,89.10
2024-01-11T07:49:21.469Z,88.63
2024-01-11T07:51:48.062Z,88.11
2024-01-11T07:54:14.470Z,88.60
2024-01-11T07:56:41.700Z,88.24
2024-01-11T07:59:08.280Z,88.38
2024-01-11T08:01:36.476Z,88.63
2024-01-11T08:04:04.023Z,88.41
2024-01-11T08:06:30.814Z,88.73
2024-01-11T08:08:57.731Z,88.96
2024-01-11T08:11:24.203Z,88.95
2024-01-11T08:13:50.688Z,88.72
2024-01-11T08:16:18.840Z,89.76
2024-01-11T08:18:46.140Z,90.32
2024-01-11T08:21:12.883Z,90.68
2024-01-11T08:23:46.681Z,90.25
2024-01-11T08:26:15.067Z,89.90
2024-01-11T08:28:42.365Z,90.34
2024-01-11T08:31:09.857Z,90.21
2024-01-11T08:33:38.104Z,89.57
2024-01-11T08:36:05.892Z,89.16
2024-01-11T08:38:32.965Z,89.81
2024-01-11T08:40:59.915Z,88.62
2024-01-11T08:43:27.550Z,89.26
2024-01-11T08:45:54.213Z,89.24
2024-01-11T08:48:20.847Z,89.73
2024-01-11T08:50:47.325Z,89.36
2024-01-11T08:53:13.872Z,90.27
2024-01-11T08:55:40.301Z,90.99
2024-01-11T08:58:07.063Z,90.75
2024-01-11T09:00:33.633Z,90.49
2024-01-11T09:03:00.802Z,90.46
2024-01-11T09:05:27.278Z,90.30
2024-01-11T09:07:54.559Z,90.60
2024-01-11T09:10:21.157Z,90.63
2024-01-11T09:12:47.806Z,90.64
2024-01-11T09:15:14.338Z,90.99
2024-01-11T09:17:40.882Z,90.79
2024-01-11T09:20:07.725Z,90.50
2024-01-11T09:22:34.160Z,90.39
2024-01-11T09:25:00.614Z,90.07
2024-01-11T09:27:27.042Z,90.24
2024-01-11T09:29:56.690Z,88.89
2024-01-11T09:32:23.723Z,89.71
2024-01-11T09:34:51.753Z,88.45
2024-01-11T09:37:18.277Z,89.36
2024-01-11T09:39:44.748Z,88.78
2024-01-11T09:42:11.768Z,88.39
2024-01-11T09:44:41.739Z,88.00
2024-01-11T09:47:12.674Z,88.37
2024-01-11T09:49:43.433Z,88.32
2024-01-11T09:52:12.048Z,88.20
2024-01-11T09:54:38.972Z,88.32
2024-01-11T09:57:06.421Z,87.66
2024-01-11T09:59:35.067Z,87.41
2024-01-11T10:02:02.217Z,87.08
2024-01-11T10:04:29.543Z,87.03
2024-01-11T10:06:57.541Z,86.18
2024-01-11T10:09:24.124Z,86.13
2024-01-11T10:11:52.132Z,85.74
2024-01-11T10:14:18.643Z,85.17
2024-01-11T10:16:45.154Z,85.48
2024-01-11T10:19:14.880Z,85.50
2024-01-11T10:21:41.563Z,84.65
2024-01-11T10:24:08.240Z,84.66
2024-01-11T10:26:34.868Z,84.91
2024-01-11T10:29:01.571Z,84.87
2024-01-11T10:31:30.999Z,85.06
2024-01-11T10:33:58.909Z,84.52
2024-01-11T10:36:26.616Z,85.06
2024-01-11T10:38:54.922Z,84.21
2024-01-11T10:41:21.729Z,83.90
2024-01-11T10:43:49.556Z,83.68
2024-01-11T10:46:17.916Z,83.63
2024-01-11T10:48:45.400Z,83.80
2024-01-11T10:51:17.294Z,84.05
2024-01-11T10:53:48.464Z,85.06
2024-01-11T10:56:19.206Z,84.10
2024-01-11T10:58:47.341Z,83.82
2024-01-11T11:01:14.553Z,83.61
2024-01-11T11:03:44.188Z,83.26
2024-01-11T11:06:12.716Z,83.88
2024-01-11T11:08:40.975Z,81.79
2024-01-11T11:11:08.866Z,82.39
2024-01-11T11:13:38.459Z,82.44
2024-01-11T11:16:05.392Z,82.49
2024-01-11T11:18:36.054Z,82.01
2024-01-11T11:21:09.603Z,81.42
2024-01-11T11:23:36.125Z,81.38
2024-01-11T11:26:02.668Z,80.89
2024-01-11T11:28:29.119Z,81.15
2024-01-11T11:30:57.783Z,80.87
2024-01-11T11:33:25.474Z,80.05
2024-01-11T11:35:58.329Z,79.98
2024-01-11T11:38:27.558Z,79.28
2024-01-11T11:40:55.674Z,77.99
2024-01-11T11:43:22.930Z,77.78
2024-01-11T11:45:51.099Z,76.81
2024-01-11T11:48:29.723Z,75.44
2024-01-11T11:51:23.167Z,75.27
2024-01-11T11:53:52.521Z,74.57
2024-01-11T11:56:21.869Z,73.48
2024-01-11T11:58:50.645Z,72.80
2024-01-11T12:01:20.875Z,72.27
2024-01-11T12:03:51.104Z,71.85
2024-01-11T12:06:20.020Z,71.30
2024-01-11T12:08:48.308Z,71.87
2024-01-11T12:11:23.768Z,71.28
2024-01-11T12:13:51.467Z,70.22
2024-01-11T12:16:18.052Z,69.54
2024-01-11T12:18:44.742Z,70.09
2024-01-11T12:21:11.512Z,68.69
2024-01-11T12:23:40.292Z,68.59
2024-01-11T12:26:14.682Z,68.13
2024-01-11T12:28:42.861Z,68.57
2024-01-11T12:31:10.212Z,66.58
2024-01-11T12:33:39.275Z,66.94
2024-01-11T12:36:08.397Z,67.11
2024-01-11T12:38:35.355Z,66.44
2024-01-11T12:41:02.084Z,65.35
2024-01-11T12:43:28.705Z,65.38
2024-01-11T12:45:56.167Z,64.50
2024-01-11T12:48:22.987Z,65.10
2024-01-11T12:50:49.585Z,64.46
2024-01-11T12:53:19.648Z,65.09
2024-01-11T12:55:54.751Z,63.58
2024-01-11T12:58:27.027Z,64.16
2024-01-11T13:00:54.288Z,63.33
2024-01-11T13:03:21.767Z,62.99
2024-01-11T13:05:49.553Z,62.85
2024-01-11T13:08:17.864Z,63.23
2024-01-11T13:10:48.502Z,62.90
2024-01-11T13:13:15.090Z,62.43
2024-01-11T13:15:41.716Z,62.79
2024-01-11T13:18:08.170Z,62.71
2024-01-11T13:20:34.667Z,63.11
2024-01-11T13:23:17.326Z,63.20
2024-01-11T13:25:45.330Z,62.23
2024-01-11T13:28:14.731Z,61.44
2024-01-11T13:30:42.454Z,61.89
2024-01-11T13:33:09.955Z,62.13
2024-01-11T13:35:37.730Z,61.72
2024-01-11T13:38:04.616Z,61.96
2024-01-11T13:40:34.358Z,61.21
2024-01-11T13:43:01.168Z,61.81
2024-01-11T13:45:27.672Z,61.10
2024-01-11T13:47:55.249Z,61.13
2024-01-11T13:50:23.445Z,61.17
2024-01-11T13:52:51.756Z,60.81
2024-01-11T13:55:24.275Z,60.46
2024-01-11T13:57:53.667Z,60.39
2024-01-11T14:00:20.687Z,61.00
2024-01-11T14:02:48.556Z,61.09
2024-01-11T14:05:18.379Z,61.18
2024-01-11T14:07:49.075Z,61.20
2024-01-11T14:10:16.187Z,61.73
2024-01-11T14:12:42.878Z,61.40
2024-01-11T14:15:13.911Z,61.52
2024-01-11T14:17:41.746Z,61.14
2024-01-11T14:20:15.977Z,60.66
2024-01-11T14:22:48.114Z,60.18
2024-01-11T14:25:14.666Z,60.07
2024-01-11T14:27:42.182Z,60.20
2024-01-11T14:30:10.584Z,60.82
2024-01-11T14:32:38.307Z,60.80
2024-01-11T14:35:06.881Z,60.62
2024-01-11T14:37:35.108Z,60.56
2024-01-11T14:40:01.747Z,60.69
2024-01-11T14:42:28.839Z,61.62
2024-01-11T14:44:55.448Z,60.92
2024-01-11T14:47:22.993Z,61.05
2024-01-11T14:49:49.937Z,61.74
2024-01-11T14:52:18.465Z,61.04
2024-01-11T14:54:45.789Z,61.04
2024-01-11T14:57:14.187Z,61.45
2024-01-11T14:59:40.827Z,61.65
2024-01-11T15:02:07.831Z,62.01
2024-01-11T15:04:34.349Z,62.20
2024-01-11T15:07:00.795Z,62.78
2024-01-11T15:09:27.543Z,63.20
2024-01-11T15:11:54.125Z,64.07
2024-01-11T15:14:20.705Z,65.24
2024-01-11T15:16:49.084Z,65.49
2024-01-11T15:19:15.801Z,66.31
2024-01-11T15:21:47.387Z,66.97
2024-01-11T15:24:16.440Z,66.75
2024-01-11T15:26:43.007Z,66.31
2024-01-11T15:29:09.586Z,67.12
2024-01-11T15:31:39.630Z,68.19
2024-01-11T15:34:06.469Z,69.24
2024-01-11T15:36:33.134Z,70.59
2024-01-11T15:39:08.085Z,71.50
2024-01-11T15:41:43.284Z,72.12
2024-01-11T15:44:09.803Z,73.04
2024-01-11T15:46:36.308Z,73.45
2024-01-11T15:49:02.850Z,74.18
2024-01-11T15:51:29.372Z,74.40
2024-01-11T15:53:56.377Z,74.93
2024-01-11T15:56:22.864Z,75.09
2024-01-11T15:58:49.656Z,76.71
2024-01-11T16:01:16.102Z,76.17
2024-01-11T16:03:42.731Z,77.00
2024-01-11T16:06:10.047Z,77.06
2024-01-11T16:08:36.653Z,77.77
2024-01-11T16:11:03.198Z,77.70
2024-01-11T16:13:29.574Z,78.14
2024-01-11T16:15:57.492Z,78.60
2024-01-11T16:18:27.211Z,78.17
2024-01-11T16:20:55.672Z,78.68
2024-01-11T16:23:22.354Z,79.05
2024-01-11T16:25:48.785Z,79.65
2024-01-11T16:28:15.274Z,79.47
2024-01-11T16:30:41.703Z,79.13
2024-01-11T16:33:09.571Z,80.37
2024-01-11T16:35:44.802Z,80.83
2024-01-11T16:38:16.017Z,81.23
2024-01-11T16:40:42.488Z,81.51
2024-01-11T16:43:11.901Z,81.53
2024-01-11T16:45:38.513Z,81.91
2024-01-11T16:48:07.919Z,81.67
2024-01-11T16:50:34.538Z,81.47
2024-01-11T16:53:01.032Z,82.62
2024-01-11T16:55:27.632Z,82.09
2024-01-11T16:57:54.268Z,81.91
2024-01-11T17:00:21.604Z,81.82
2024-01-11T17:02:48.081Z,80.84
2024-01-11T17:05:14.811Z,80.91
2024-01-11T17:07:41.641Z,82.09
2024-01-11T17:10:08.300Z,82.96
2024-01-11T17:12:34.730Z,83.18
2024-01-11T17:15:01.228Z,82.68
2024-01-11T17:17:27.796Z,81.17
2024-01-11T17:19:54.545Z,80.06
2024-01-11T17:22:21.037Z,78.97
2024-01-11T17:24:47.494Z,78.71
2024-01-11T17:27:15.708Z,77.86
2024-01-11T17:29:43.150Z,77.47
2024-01-11T17:32:09.735Z,75.46
2024-01-11T17:34:36.352Z,75.62
2024-01-11T17:37:02.906Z,75.23
2024-01-11T17:39:30.275Z,74.98
2024-01-11T17:42:00.496Z,75.30
2024-01-11T17:44:29.950Z,74.12
2024-01-11T17:46:56.376Z,74.50
2024-01-11T17:49:22.884Z,73.67
2024-01-11T17:51:49.400Z,72.80
2024-01-11T17:54:15.816Z,72.91
2024-01-11T17:56:42.607Z,73.26
2024-01-11T17:59:10.580Z,73.29
2024-01-11T18:01:37.312Z,73.17
2024-01-11T18:04:06.835Z,72.59
2024-01-11T18:06:33.956Z,72.64
2024-01-11T18:09:00.735Z,73.59
2024-01-11T18:11:27.361Z,74.47
2024-01-11T18:13:54.044Z,75.47
2024-01-11T18:16:23.539Z,75.98
2024-01-11T18:18:50.708Z,76.87
2024-01-11T18:21:17.547Z,76.35
2024-01-11T18:23:44.215Z,76.91
2024-01-11T18:26:11.207Z,77.43
2024-01-11T18:28:38.022Z,77.56
2024-01-11T18:31:05.011Z,78.30
2024-01-11T18:33:31.652Z,79.07
2024-01-11T18:35:58.136Z,79.76
2024-01-11T18:38:24.712Z,80.63
2024-01-11T18:40:51.153Z,81.27
2024-01-11T18:43:20.573Z,81.34
2024-01-11T18:45:48.717Z,81.78
2024-01-11T18:48:17.558Z,82.09
2024-01-11T18:50:44.379Z,82.92
2024-01-11T18:53:11.091Z,82.50
2024-01-11T18:55:37.653Z,81.63
2024-01-11T18:58:05.552Z,81.71
2024-01-11T19:00:35.784Z,80.13
2024-01-11T19:03:02.640Z,80.64
2024-01-11T19:05:29.402Z,80.89
2024-01-11T19:07:55.904Z,81.55
2024-01-11T19:10:22.302Z,81.35
2024-01-11T19:12:48.890Z,80.67
2024-01-11T19:15:15.362Z,80.17
2024-01-11T19:17:41.898Z,79.37
2024-01-11T19:20:08.816Z,79.76
2024-01-11T19:22:35.637Z,78.63
2024-01-11T19:25:03.688Z,79.31
2024-01-11T19:27:30.138Z,79.59
2024-01-11T19:29:57.497Z,78.84
2024-01-11T19:32:24.075Z,79.55
2024-01-11T19:34:50.782Z,79.72
2024-01-11T19:37:18.883Z,79.77
2024-01-11T19:39:49.054Z,79.79
2024-01-11T19:42:15.479Z,79.30
2024-01-11T19:44:41.962Z,79.81
2024-01-11T19:47:08.595Z,79.58
2024-01-11T19:49:35.247Z,79.00
2024-01-11T19:52:01.714Z,79.11
2024-01-11T19:54:28.219Z,80.10
2024-01-11T19:56:54.918Z,80.29
2024-01-11T19:59:21.518Z,79.56
2024-01-11T20:01:49.479Z,80.39
2024-01-11T20:04:17.044Z,79.45
2024-01-11T20:06:44.428Z,81.38
2024-01-11T20:09:12.293Z,81.05
2024-01-11T20:11:40.098Z,81.37
2024-01-11T20:14:08.208Z,81.50
2024-01-11T20:16:36.857Z,82.73
2024-01-11T20:19:03.412Z,82.83
2024-01-11T20:21:29.984Z,83.91
2024-01-11T20:23:56.418Z,84.44
2024-01-11T20:26:26.834Z,85.22
2024-01-11T20:28:54.045Z,83.97
2024-01-11T20:31:21.954Z,83.68
2024-01-11T20:33:48.793Z,82.80
2024-01-11T20:36:15.496Z,83.97
2024-01-11T20:38:42.055Z,82.86
2024-01-11T20:41:08.812Z,82.86
2024-01-11T20:43:35.373Z,83.01
2024-01-11T20:46:01.779Z,83.03
2024-01-11T20:48:40.191Z,84.22
2024-01-11T20:51:09.460Z,84.88
2024-01-11T20:53:36.632Z,85.23
2024-01-11T20:56:04.243Z,85.80
2024-01-11T20:58:31.257Z,86.39
2024-01-11T21:00:58.463Z,85.82
2024-01-11T21:03:25.638Z,86.41
2024-01-11T21:05:55.341Z,86.54
2024-01-11T21:08:22.271Z,86.19
2024-01-11T21:10:49.158Z,85.58
2024-01-11T21:13:16.791Z,85.43
2024-01-11T21:15:43.580Z,85.26
2024-01-11T21:18:10.879Z,84.41
2024-01-11T21:20:38.350Z,83.81
2024-01-11T21:23:04.911Z,83.19
2024-01-11T21:25:31.684Z,82.50
2024-01-11T21:27:59.737Z,82.49
2024-01-11T21:30:26.278Z,82.11
2024-01-11T21:32:52.698Z,81.81
2024-01-11T21:35:19.631Z,81.77
2024-01-11T21:37:50.144Z,81.44
2024-01-11T21:40:20.142Z,81.29
2024-01-11T21:42:47.577Z,81.49
2024-01-11T21:45:14.120Z,82.77
2024-01-11T21:47:40.741Z,82.82
2024-01-11T21:50:07.537Z,81.98
2024-01-11T21:52:34.112Z,81.81
2024-01-11T21:55:00.653Z,81.07
2024-01-11T21:57:27.059Z,80.61
2024-01-11T21:59:54.015Z,80.09
2024-01-11T22:02:20.472Z,81.00
2024-01-11T22:04:46.860Z,81.71
2024-01-11T22:07:13.480Z,82.24
2024-01-11T22:09:40.125Z,82.02
2024-01-11T22:12:06.932Z,82.99
2024-01-11T22:14:33.471Z,83.06
2024-01-11T22:16:59.830Z,83.25
2024-01-11T22:19:29.458Z,82.71
2024-01-11T22:21:55.885Z,83.68
2024-01-11T22:24:22.281Z,83.90
2024-01-11T22:26:48.837Z,83.51
2024-01-11T22:29:15.370Z,83.37
2024-01-11T22:31:41.765Z,84.30
2024-01-11T22:34:08.233Z,83.55
2024-01-11T22:36:35.700Z,82.69
2024-01-11T22:39:02.087Z,81.81
2024-01-11T22:41:30.563Z,82.48
2024-01-11T22:43:57.622Z,82.61
2024-01-11T22:46:23.982Z,82.58
2024-01-11T22:48:50.471Z,81.88
2024-01-11T22:51:18.450Z,81.89
2024-01-11T22:53:45.817Z,81.01
2024-01-11T22:56:12.272Z,81.15
2024-01-11T22:58:38.724Z,80.85
2024-01-11T23:01:05.168Z,81.55
2024-01-11T23:03:31.652Z,81.56
2024-01-11T23:05:58.524Z,82.80
2024-01-11T23:08:24.934Z,83.31
2024-01-11T23:10:51.518Z,83.90
2024-01-11T23:13:17.869Z,83.98
2024-01-11T23:15:44.252Z,83.28
2024-01-11T23:18:11.543Z,82.29
2024-01-11T23:20:38.155Z,82.33
2024-01-11T23:23:04.767Z,82.35
2024-01-11T23:25:33.737Z,82.50
2024-01-11T23:28:01.400Z,81.93
2024-01-11T23:30:27.820Z,81.83
2024-01-11T23:32:54.285Z,80.96
2024-01-11T23:35:20.795Z,81.36
2024-01-11T23:37:48.104Z,81.19
2024-01-11T23:40:14.677Z,81.99
2024-01-11T23:42:41.062Z,82.17
2024-01-11T23:45:07.976Z,82.09
2024-01-11T23:47:35.635Z,81.74
2024-01-11T23:50:02.301Z,81.51
2024-01-11T23:52:28.805Z,81.50
2024-01-11T23:54:55.216Z,82.25
2024-01-11T23:57:21.644Z,82.91
2024-01-11T23:59:48.163Z,82.73
